createdAt,value
2022-11-24T00:01:12.052Z,97629.89
2022-11-24T00:03:39.158Z,97628.57
2022-11-24T00:06:09.407Z,97632.85
2022-11-24T00:08:37.412Z,97633.34
2022-11-24T00:11:06.200Z,97630.92
2022-11-24T00:13:33.702Z,97631.83
2022-11-24T00:16:11.005Z,97632.60
2022-11-24T00:18:39.415Z,97639.84
2022-11-24T00:21:06.857Z,97639.23
2022-11-24T00:23:34.692Z,97643.31
2022-11-24T00:26:06.852Z,97644.84
2022-11-24T00:28:34.874Z,97645.37
2022-11-24T00:31:02.821Z,97652.36
2022-11-24T00:33:29.653Z,97658.55
2022-11-24T00:35:57.624Z,97660.58
2022-11-24T00:38:24.830Z,97668.11
2022-11-24T00:40:52.510Z,97667.39
2022-11-24T00:43:20.116Z,97667.59
2022-11-24T00:45:47.206Z,97669.66
2022-11-24T00:48:14.195Z,97672.42
2022-11-24T00:50:41.050Z,97674.02
2022-11-24T00:53:07.859Z,97669.48
2022-11-24T00:55:34.698Z,97673.39
2022-11-24T00:58:01.555Z,97675.06
2022-11-24T01:00:28.341Z,97674.77
2022-11-24T01:02:55.216Z,97672.92
2022-11-24T01:05:22.090Z,97669.44
2022-11-24T01:07:48.945Z,97670.58
2022-11-24T01:10:16.120Z,97673.21
2022-11-24T01:12:42.895Z,97670.59
2022-11-24T01:15:09.746Z,97670.45
2022-11-24T01:17:36.538Z,97669.86
2022-11-24T01:20:04.974Z,97671.96
2022-11-24T01:22:32.573Z,97675.00
2022-11-24T01:24:59.332Z,97672.56
2022-11-24T01:27:26.235Z,97677.88
2022-11-24T01:29:53.068Z,97682.39
2022-11-24T01:32:19.881Z,97680.70
2022-11-24T01:34:46.852Z,97685.29
2022-11-24T01:37:13.664Z,97689.38
2022-11-24T01:39:40.565Z,97695.40
2022-11-24T01:42:07.866Z,97697.28
2022-11-24T01:44:34.986Z,97698.39
2022-11-24T01:47:33.890Z,97699.98
2022-11-24T01:50:03.324Z,97703.15
2022-11-24T01:52:38.437Z,97707.62
2022-11-24T01:55:12.670Z,97708.42
2022-11-24T01:57:46.011Z,97703.15
2022-11-24T02:00:15.225Z,97708.06
2022-11-24T02:02:45.396Z,97710.67
2022-11-24T02:05:21.445Z,97713.04
2022-11-24T02:07:48.858Z,97713.92
2022-11-24T02:10:17.118Z,97706.15
2022-11-24T02:12:47.903Z,97705.55
2022-11-24T02:15:16.109Z,97708.39
2022-11-24T02:17:42.964Z,97709.77
2022-11-24T02:20:11.649Z,97703.98
2022-11-24T02:22:57.353Z,97705.18
2022-11-24T02:25:30.752Z,97707.56
2022-11-24T02:27:59.987Z,97706.04
2022-11-24T02:30:26.822Z,97706.45
2022-11-24T02:32:54.391Z,97705.86
2022-11-24T02:35:21.767Z,97711.31
2022-11-24T02:37:48.732Z,97709.33
2022-11-24T02:40:18.555Z,97707.84
2022-11-24T02:42:47.011Z,97709.38
2022-11-24T02:45:15.304Z,97711.72
2022-11-24T02:47:42.142Z,97711.98
2022-11-24T02:50:09.333Z,97708.01
2022-11-24T02:52:36.096Z,97715.05
2022-11-24T02:55:04.243Z,97713.98
2022-11-24T02:57:31.255Z,97714.88
2022-11-24T02:59:58.025Z,97710.82
2022-11-24T03:02:24.859Z,97710.52
2022-11-24T03:04:52.018Z,97713.52
2022-11-24T03:07:19.396Z,97712.30
2022-11-24T03:09:46.272Z,97710.23
2022-11-24T03:12:13.052Z,97708.27
2022-11-24T03:14:39.798Z,97709.84
2022-11-24T03:17:07.147Z,97706.73
2022-11-24T03:19:34.149Z,97708.79
2022-11-24T03:22:00.953Z,97706.38
2022-11-24T03:24:27.789Z,97706.90
2022-11-24T03:26:54.552Z,97708.84
2022-11-24T03:29:22.461Z,97711.86
2022-11-24T03:31:49.456Z,97711.07
2022-11-24T03:34:16.235Z,97715.59
2022-11-24T03:36:43.512Z,97717.23
2022-11-24T03:39:10.417Z,97720.21
2022-11-24T03:41:37.308Z,97720.70
2022-11-24T03:44:04.421Z,97724.46
2022-11-24T03:46:31.287Z,97723.36
2022-11-24T03:48:58.250Z,97724.20
2022-11-24T03:51:25.048Z,97727.79
2022-11-24T03:53:51.865Z,97726.80
2022-11-24T03:56:18.647Z,97730.23
2022-11-24T03:58:45.412Z,97733.58
2022-11-24T04:01:12.185Z,97735.02
2022-11-24T04:03:38.969Z,97737.14
2022-11-24T04:06:05.814Z,97735.92
2022-11-24T04:08:32.691Z,97739.38
2022-11-24T04:10:59.525Z,97742.55
2022-11-24T04:13:27.634Z,97742.73
2022-11-24T04:15:54.779Z,97743.86
2022-11-24T04:18:21.968Z,97747.96
2022-11-24T04:20:51.564Z,97747.05
2022-11-24T04:23:19.066Z,97748.46
2022-11-24T04:25:45.867Z,97751.67
2022-11-24T04:28:12.763Z,97750.98
2022-11-24T04:30:44.852Z,97753.23
2022-11-24T04:33:12.682Z,97750.78
2022-11-24T04:35:39.592Z,97751.95
2022-11-24T04:38:06.436Z,97756.06
2022-11-24T04:40:33.296Z,97751.45
2022-11-24T04:43:00.219Z,97750.95
2022-11-24T04:45:27.368Z,97757.61
2022-11-24T04:47:54.429Z,97758.92
2022-11-24T04:50:21.172Z,97755.83
2022-11-24T04:52:48.056Z,97762.57
2022-11-24T04:55:14.992Z,97764.02
2022-11-24T04:57:41.912Z,97760.33
2022-11-24T05:00:09.768Z,97767.61
2022-11-24T05:02:37.686Z,97774.33
2022-11-24T05:05:05.510Z,97777.09
2022-11-24T05:07:35.137Z,97772.45
2022-11-24T05:10:17.798Z,97784.07
2022-11-24T05:12:49.920Z,97785.94
2022-11-24T05:15:17.942Z,97783.94
2022-11-24T05:17:44.727Z,97788.67
2022-11-24T05:20:11.593Z,97790.30
2022-11-24T05:22:38.416Z,97786.64
2022-11-24T05:25:05.597Z,97789.38
2022-11-24T05:27:32.434Z,97793.33
2022-11-24T05:29:59.348Z,97791.58
2022-11-24T05:32:26.116Z,97792.61
2022-11-24T05:34:54.164Z,97797.14
2022-11-24T05:37:21.781Z,97799.00
2022-11-24T05:39:48.637Z,97797.80
2022-11-24T05:42:31.171Z,97801.44
2022-11-24T05:44:58.148Z,97800.40
2022-11-24T05:47:25.750Z,97804.10
2022-11-24T05:49:52.716Z,97808.29
2022-11-24T05:52:19.575Z,97813.51
2022-11-24T05:54:46.466Z,97814.36
2022-11-24T05:57:13.271Z,97814.48
2022-11-24T05:59:40.148Z,97815.02
2022-11-24T06:02:06.938Z,97820.33
2022-11-24T06:04:33.984Z,97819.92
2022-11-24T06:07:01.173Z,97824.91
2022-11-24T06:09:27.921Z,97828.94
2022-11-24T06:11:55.128Z,97830.47
2022-11-24T06:14:21.905Z,97827.69
2022-11-24T06:16:48.735Z,97827.85
2022-11-24T06:19:15.474Z,97829.13
2022-11-24T06:21:42.168Z,97827.35
2022-11-24T06:24:09.017Z,97833.11
2022-11-24T06:26:35.878Z,97831.11
2022-11-24T06:29:02.824Z,97837.08
2022-11-24T06:31:29.843Z,97841.54
2022-11-24T06:33:56.754Z,97846.90
2022-11-24T06:36:23.530Z,97846.59
2022-11-24T06:38:50.243Z,97848.27
2022-11-24T06:41:18.092Z,97852.67
2022-11-24T06:43:45.725Z,97856.45
2022-11-24T06:46:13.080Z,97854.73
2022-11-24T06:48:40.074Z,97857.47
2022-11-24T06:51:08.812Z,97860.16
2022-11-24T06:53:38.360Z,97863.67
2022-11-24T06:56:13.703Z,97853.44
2022-11-24T06:58:45.280Z,97864.81
2022-11-24T07:01:18.925Z,97867.47
2022-11-24T07:03:46.596Z,97862.31
2022-11-24T07:06:13.426Z,97861.54
2022-11-24T07:08:40.229Z,97862.98
2022-11-24T07:11:09.268Z,97865.62
2022-11-24T07:13:36.049Z,97873.08
2022-11-24T07:16:19.576Z,97872.23
2022-11-24T07:18:47.785Z,97875.17
2022-11-24T07:21:31.005Z,97877.99
2022-11-24T07:23:58.507Z,97881.57
2022-11-24T07:26:25.838Z,97880.46
2022-11-24T07:28:52.610Z,97883.84
2022-11-24T07:31:21.851Z,97883.82
2022-11-24T07:33:52.658Z,97889.38
2022-11-24T07:36:19.435Z,97888.42
2022-11-24T07:38:46.442Z,97887.20
2022-11-24T07:41:15.693Z,97889.75
2022-11-24T07:43:42.499Z,97890.19
2022-11-24T07:46:12.232Z,97890.11
2022-11-24T07:48:39.537Z,97895.78
2022-11-24T07:51:07.114Z,97898.78
2022-11-24T07:53:34.621Z,97901.06
2022-11-24T07:56:02.661Z,97905.92
2022-11-24T07:58:32.941Z,97897.33
2022-11-24T08:01:00.770Z,97905.07
2022-11-24T08:03:27.856Z,97903.21
2022-11-24T08:08:43.287Z,97906.87
2022-11-24T08:11:14.217Z,97911.63
2022-11-24T08:13:41.207Z,97910.38
2022-11-24T08:16:10.810Z,97911.69
2022-11-24T08:18:38.260Z,97912.98
2022-11-24T08:21:06.200Z,97918.16
2022-11-24T08:23:33.644Z,97919.17
2022-11-24T08:26:05.542Z,97921.55
2022-11-24T08:28:33.058Z,97920.91
2022-11-24T08:31:04.253Z,97922.41
2022-11-24T08:33:32.010Z,97923.80
2022-11-24T08:36:08.640Z,97924.27
2022-11-24T08:38:35.440Z,97922.21
2022-11-24T08:41:04.294Z,97931.98
2022-11-24T08:43:31.237Z,97938.09
2022-11-24T08:46:01.163Z,97936.27
2022-11-24T08:48:28.691Z,97943.84
2022-11-24T08:50:56.714Z,97943.41
2022-11-24T08:53:23.770Z,97942.38
2022-11-24T08:55:50.686Z,97947.48
2022-11-24T08:58:17.555Z,97948.80
2022-11-24T09:00:44.329Z,97952.90
2022-11-24T09:03:12.262Z,97954.10
2022-11-24T09:05:54.467Z,97951.16
2022-11-24T09:08:21.175Z,97957.45
2022-11-24T09:10:48.217Z,97957.27
2022-11-24T09:13:14.961Z,97957.09
2022-11-24T09:15:41.700Z,97957.90
2022-11-24T09:18:08.607Z,97954.74
2022-11-24T09:20:35.388Z,97952.98
2022-11-24T09:23:02.400Z,97954.88
2022-11-24T09:25:29.209Z,97952.04
2022-11-24T09:27:56.534Z,97954.59
2022-11-24T09:30:23.434Z,97954.19
2022-11-24T09:32:50.142Z,97954.22
2022-11-24T09:35:16.939Z,97949.59
2022-11-24T09:37:45.761Z,97950.08
2022-11-24T09:40:14.340Z,97952.17
2022-11-24T09:42:53.816Z,97955.79
2022-11-24T09:45:41.651Z,97958.84
2022-11-24T09:48:22.103Z,97955.31
2022-11-24T09:50:49.641Z,97956.60
2022-11-24T09:53:26.997Z,97954.79
2022-11-24T09:55:58.780Z,97951.63
2022-11-24T09:58:56.658Z,97950.86
2022-11-24T10:01:30.160Z,97953.53
2022-11-24T10:04:02.546Z,97954.98
2022-11-24T10:06:40.978Z,97954.90
2022-11-24T10:09:18.451Z,97956.22
2022-11-24T10:11:52.542Z,97956.54
2022-11-24T10:14:35.037Z,97959.28
2022-11-24T10:17:32.214Z,97961.36
2022-11-24T10:20:21.650Z,97957.23
2022-11-24T10:23:15.663Z,97955.94
2022-11-24T10:25:54.620Z,97956.61
2022-11-24T10:28:21.408Z,97958.52
2022-11-24T10:30:49.853Z,97957.95
2022-11-24T10:33:19.707Z,97955.95
2022-11-24T10:35:53.613Z,97956.31
2022-11-24T10:38:20.410Z,97956.80
2022-11-24T10:40:59.593Z,97954.98
2022-11-24T10:43:28.488Z,97952.49
2022-11-24T10:46:05.539Z,97960.46
2022-11-24T10:48:41.926Z,97957.83
2022-11-24T10:51:37.849Z,97963.88
2022-11-24T10:54:14.586Z,97965.56
2022-11-24T10:56:42.884Z,97963.13
2022-11-24T10:59:24.816Z,97966.84
2022-11-24T11:01:53.255Z,97965.29
2022-11-24T11:04:25.801Z,97965.79
2022-11-24T11:06:52.736Z,97970.52
2022-11-24T11:09:21.566Z,97965.76
2022-11-24T11:11:48.983Z,97963.02
2022-11-24T11:14:32.539Z,97964.38
2022-11-24T11:16:59.621Z,97962.14
2022-11-24T11:20:00.089Z,97965.27
2022-11-24T11:22:28.492Z,97964.56
2022-11-24T11:25:10.487Z,97968.12
2022-11-24T11:27:39.173Z,97966.30
2022-11-24T11:36:11.924Z,97970.45
2022-11-24T11:38:40.748Z,97970.13
2022-11-24T11:41:18.014Z,97971.92
2022-11-24T11:43:47.117Z,97977.41
2022-11-24T11:46:17.090Z,97982.52
2022-11-24T11:48:47.399Z,97985.08
2022-11-24T11:51:32.910Z,97982.93
2022-11-24T11:54:15.364Z,97983.95
2022-11-24T11:56:45.955Z,97979.83
2022-11-24T11:59:43.465Z,97979.59
2022-11-24T12:02:41.020Z,97984.59
2022-11-24T12:05:30.088Z,97987.63
2022-11-24T12:08:16.107Z,97986.90
2022-11-24T12:10:50.751Z,97982.11
2022-11-24T12:13:34.473Z,97980.83
2022-11-24T12:16:18.606Z,97978.51
2022-11-24T12:18:59.482Z,97974.87
2022-11-24T12:21:42.107Z,97975.31
2022-11-24T12:24:24.152Z,97977.40
2022-11-24T12:27:20.909Z,97981.77
2022-11-24T12:30:04.697Z,97977.95
2022-11-24T12:32:56.973Z,97977.21
2022-11-24T12:35:39.181Z,97977.35
2022-11-24T12:38:14.457Z,97978.95
2022-11-24T12:41:18.248Z,97981.27
2022-11-24T12:43:52.427Z,97984.70
2022-11-24T12:46:34.410Z,97987.39
2022-11-24T12:49:20.194Z,97989.58
2022-11-24T12:51:53.481Z,97987.66
2022-11-24T12:54:21.744Z,97988.16
2022-11-24T12:57:00.444Z,97993.52
2022-11-24T12:59:39.951Z,97990.79
2022-11-24T13:02:27.952Z,97998.60
2022-11-24T13:05:13.623Z,98002.91
2022-11-24T13:07:47.004Z,98009.48
2022-11-24T13:13:23.884Z,98011.05
2022-11-24T13:18:58.373Z,98013.30
2022-11-24T13:21:29.374Z,98017.71
2022-11-24T13:24:01.795Z,98025.96
2022-11-24T13:26:43.842Z,98023.80
2022-11-24T13:29:41.209Z,98025.45
2022-11-24T13:32:09.125Z,98027.71
2022-11-24T13:34:39.627Z,98032.95
2022-11-24T13:37:27.301Z,98040.28
2022-11-24T13:40:20.800Z,98042.17
2022-11-24T13:42:54.904Z,98045.67
2022-11-24T13:45:39.493Z,98050.14
2022-11-24T13:48:22.611Z,98052.81
2022-11-24T13:50:49.715Z,98058.70
2022-11-24T13:53:27.142Z,98065.27
2022-11-24T13:55:59.445Z,98071.52
2022-11-24T13:58:26.253Z,98071.69
2022-11-24T14:01:11.691Z,98079.48
2022-11-24T14:04:07.136Z,98084.83
2022-11-24T14:06:39.647Z,98090.06
2022-11-24T14:09:16.431Z,98094.80
2022-11-24T14:11:44.216Z,98098.98
2022-11-24T14:14:20.930Z,98097.27
2022-11-24T14:16:47.719Z,98100.77
2022-11-24T14:19:18.500Z,98104.36
2022-11-24T14:21:45.634Z,98105.61
2022-11-24T14:24:24.292Z,98106.30
2022-11-24T14:26:51.730Z,98117.33
2022-11-24T14:29:21.663Z,98119.25
2022-11-24T14:31:57.940Z,98118.92
2022-11-24T14:34:28.263Z,98125.25
2022-11-24T14:36:56.648Z,98125.15
2022-11-24T14:39:26.045Z,98125.55
2022-11-24T14:42:04.027Z,98127.77
2022-11-24T14:44:35.407Z,98128.84
2022-11-24T14:47:05.517Z,98133.80
2022-11-24T14:49:34.984Z,98138.12
2022-11-24T14:52:08.636Z,98135.91
2022-11-24T14:54:44.608Z,98137.92
2022-11-24T14:57:30.712Z,98140.38
2022-11-24T15:00:14.077Z,98142.09
2022-11-24T15:02:44.670Z,98145.55
2022-11-24T15:05:11.709Z,98148.75
2022-11-24T15:07:41.624Z,98150.09
2022-11-24T15:10:34.780Z,98158.16
2022-11-24T15:13:05.293Z,98158.27
2022-11-24T15:15:37.238Z,98160.84
2022-11-24T15:18:05.993Z,98163.75
2022-11-24T15:20:37.668Z,98161.84
2022-11-24T15:23:24.978Z,98165.94
2022-11-24T15:25:54.778Z,98169.88
2022-11-24T15:28:26.185Z,98171.52
2022-11-24T15:30:54.988Z,98176.59
2022-11-24T15:33:23.190Z,98175.53
2022-11-24T15:35:50.291Z,98186.02
2022-11-24T15:38:17.507Z,98183.96
2022-11-24T15:40:46.983Z,98186.73
2022-11-24T15:43:29.395Z,98186.88
2022-11-24T15:45:56.105Z,98187.81
2022-11-24T15:48:23.049Z,98190.27
2022-11-24T15:50:50.883Z,98192.14
2022-11-24T15:53:35.386Z,98194.04
2022-11-24T15:56:03.350Z,98198.36
2022-11-24T15:58:30.042Z,98199.55
2022-11-24T16:00:57.042Z,98196.71
2022-11-24T16:03:46.543Z,98198.05
2022-11-24T16:06:19.125Z,98196.98
2022-11-24T16:08:50.417Z,98197.77
2022-11-24T16:11:17.200Z,98196.16
2022-11-24T16:13:50.109Z,98206.73
2022-11-24T16:16:19.188Z,98204.86
2022-11-24T16:18:46.038Z,98209.23
2022-11-24T16:21:12.833Z,98209.42
2022-11-24T16:23:39.635Z,98208.78
2022-11-24T16:26:07.095Z,98208.83
2022-11-24T16:28:33.949Z,98211.66
2022-11-24T16:31:00.627Z,98215.02
2022-11-24T16:33:29.252Z,98215.45
2022-11-24T16:35:55.996Z,98212.27
2022-11-24T16:38:22.723Z,98219.45
2022-11-24T16:40:51.663Z,98224.89
2022-11-24T16:43:18.631Z,98226.78
2022-11-24T16:45:45.840Z,98224.89
2022-11-24T16:48:12.709Z,98225.38
2022-11-24T16:50:40.238Z,98230.14
2022-11-24T16:53:07.008Z,98228.77
2022-11-24T16:55:33.748Z,98230.94
2022-11-24T16:58:04.042Z,98232.90
2022-11-24T17:00:30.716Z,98235.45
2022-11-24T17:02:57.521Z,98233.93
2022-11-24T17:05:25.608Z,98237.70
2022-11-24T17:07:52.381Z,98240.23
2022-11-24T17:10:19.345Z,98238.30
2022-11-24T17:12:46.026Z,98239.21
2022-11-24T17:18:23.533Z,98247.48
2022-11-24T17:20:46.311Z,98249.15
2022-11-24T17:23:13.095Z,98249.89
2022-11-24T17:25:39.800Z,98256.67
2022-11-24T17:28:06.483Z,98256.86
2022-11-24T17:30:33.706Z,98255.95
2022-11-24T17:33:00.397Z,98261.61
2022-11-24T17:35:27.129Z,98260.16
2022-11-24T17:37:53.818Z,98265.33
2022-11-24T17:40:28.268Z,98264.08
2022-11-24T17:43:01.075Z,98268.62
2022-11-24T17:45:29.505Z,98272.89
2022-11-24T17:47:59.813Z,98273.35
2022-11-24T17:50:26.818Z,98277.89
2022-11-24T17:52:54.231Z,98279.29
2022-11-24T17:55:21.357Z,98283.61
2022-11-24T17:57:48.169Z,98285.87
2022-11-24T18:00:15.345Z,98289.23
2022-11-24T18:02:42.025Z,98295.98
2022-11-24T18:05:09.015Z,98296.05
2022-11-24T18:07:36.951Z,98301.56
2022-11-24T18:10:04.443Z,98302.14
2022-11-24T18:12:32.879Z,98304.60
2022-11-24T18:14:59.948Z,98307.34
2022-11-24T18:17:26.600Z,98309.98
2022-11-24T18:19:53.387Z,98309.14
2022-11-24T18:22:36.634Z,98314.81
2022-11-24T18:25:07.294Z,98317.84
2022-11-24T18:27:34.031Z,98318.99
2022-11-24T18:30:00.771Z,98324.46
2022-11-24T18:32:27.494Z,98327.53
2022-11-24T18:34:54.305Z,98327.17
2022-11-24T18:37:20.966Z,98326.36
2022-11-24T18:39:47.743Z,98329.62
2022-11-24T18:42:14.409Z,98328.93
2022-11-24T18:44:42.434Z,98332.20
2022-11-24T18:47:09.167Z,98328.10
2022-11-24T18:49:35.842Z,98330.39
2022-11-24T18:52:02.510Z,98331.00
2022-11-24T18:54:29.259Z,98330.11
2022-11-24T18:57:01.740Z,98325.73
2022-11-24T18:59:30.228Z,98325.08
2022-11-24T19:01:58.124Z,98330.37
2022-11-24T19:04:27.237Z,98332.62
2022-11-24T19:06:54.076Z,98338.22
2022-11-24T19:09:22.655Z,98344.17
2022-11-24T19:11:49.852Z,98351.20
2022-11-24T19:14:18.182Z,98353.66
2022-11-24T19:16:47.782Z,98356.33
2022-11-24T19:19:15.546Z,98357.22
2022-11-24T19:21:58.453Z,98361.23
2022-11-24T19:24:25.325Z,98362.03
2022-11-24T19:26:53.317Z,98364.69
2022-11-24T19:29:37.931Z,98364.83
2022-11-24T19:32:09.777Z,98365.81
2022-11-24T19:34:36.895Z,98367.80
2022-11-24T19:37:03.890Z,98368.92
2022-11-24T19:39:30.581Z,98367.88
2022-11-24T19:41:57.379Z,98370.25
2022-11-24T19:44:25.334Z,98369.75
2022-11-24T19:46:52.026Z,98371.81
2022-11-24T19:49:18.704Z,98371.25
2022-11-24T19:52:15.932Z,98372.83
2022-11-24T19:54:58.418Z,98375.68
2022-11-24T19:57:25.534Z,98375.60
2022-11-24T19:59:52.338Z,98377.10
2022-11-24T20:02:19.151Z,98374.80
2022-11-24T20:04:45.831Z,98375.67
2022-11-24T20:07:12.601Z,98377.16
2022-11-24T20:09:39.365Z,98379.02
2022-11-24T20:12:06.220Z,98384.80
2022-11-24T20:14:36.036Z,98385.64
2022-11-24T20:17:04.315Z,98388.80
2022-11-24T20:19:33.181Z,98397.67
2022-11-24T20:22:00.256Z,98396.13
2022-11-24T20:24:27.087Z,98401.77
2022-11-24T20:26:58.430Z,98404.48
2022-11-24T20:29:25.455Z,98405.05
2022-11-24T20:31:54.598Z,98409.75
2022-11-24T20:34:22.757Z,98412.29
2022-11-24T20:36:49.828Z,98409.44
2022-11-24T20:39:21.109Z,98413.63
2022-11-24T20:41:48.404Z,98414.65
2022-11-24T20:44:20.536Z,98415.84
2022-11-24T20:46:48.386Z,98417.36
2022-11-24T20:49:17.806Z,98416.59
2022-11-24T20:51:47.079Z,98412.34
2022-11-24T20:54:15.758Z,98420.46
2022-11-24T20:56:44.118Z,98421.91
2022-11-24T20:59:13.805Z,98426.48
2022-11-24T21:01:59.301Z,98431.25
2022-11-24T21:04:27.284Z,98433.33
2022-11-24T21:07:24.607Z,98433.06
2022-11-24T21:09:51.651Z,98434.89
2022-11-24T21:12:18.310Z,98436.35
2022-11-24T21:14:45.148Z,98439.59
2022-11-24T21:17:13.211Z,98444.23
2022-11-24T21:19:59.675Z,98444.06
2022-11-24T21:22:28.281Z,98443.13
2022-11-24T21:24:55.023Z,98441.06
2022-11-24T21:27:21.715Z,98445.16
2022-11-24T21:29:48.396Z,98448.52
2022-11-24T21:32:15.233Z,98444.26
2022-11-24T21:34:41.925Z,98446.12
2022-11-24T21:37:08.663Z,98445.53
2022-11-24T21:39:36.454Z,98444.70
2022-11-24T21:42:03.249Z,98446.94
2022-11-24T21:44:31.158Z,98446.95
2022-11-24T21:46:57.840Z,98444.23
2022-11-24T21:49:24.984Z,98447.13
2022-11-24T21:51:56.132Z,98454.33
2022-11-24T21:54:23.109Z,98457.49
2022-11-24T21:56:49.773Z,98456.08
2022-11-24T21:59:16.570Z,98456.35
2022-11-24T22:01:43.311Z,98458.23
2022-11-24T22:04:10.190Z,98457.58
2022-11-24T22:06:36.916Z,98454.13
2022-11-24T22:09:03.726Z,98457.79
2022-11-24T22:11:30.466Z,98461.37
2022-11-24T22:13:57.187Z,98463.54
2022-11-24T22:16:25.772Z,98464.17
2022-11-24T22:18:53.290Z,98462.52
2022-11-24T22:21:24.279Z,98464.35
2022-11-24T22:23:53.323Z,98465.11
2022-11-24T22:26:22.337Z,98466.98
2022-11-24T22:28:49.445Z,98469.91
2022-11-24T22:31:22.402Z,98468.56
2022-11-24T22:33:50.051Z,98472.42
2022-11-24T22:36:20.811Z,98474.98
2022-11-24T22:38:48.178Z,98479.69
2022-11-24T22:44:02.182Z,98482.04
2022-11-24T22:46:30.424Z,98486.82
2022-11-24T22:48:59.824Z,98484.94
2022-11-24T22:51:29.388Z,98482.98
2022-11-24T22:53:58.322Z,98487.46
2022-11-24T22:56:27.840Z,98485.72
2022-11-24T22:58:54.900Z,98484.64
2022-11-24T23:01:24.044Z,98489.59
2022-11-24T23:03:54.423Z,98488.98
2022-11-24T23:06:23.893Z,98490.81
2022-11-24T23:08:51.507Z,98491.27
2022-11-24T23:11:23.681Z,98498.88
2022-11-24T23:13:54.193Z,98500.09
2022-11-24T23:16:21.234Z,98502.81
2022-11-24T23:18:53.543Z,98502.53
2022-11-24T23:21:23.833Z,98499.04
2022-11-24T23:23:51.579Z,98501.41
2022-11-24T23:26:25.016Z,98498.95
2022-11-24T23:28:51.776Z,98499.88
2022-11-24T23:31:21.552Z,98496.41
2022-11-24T23:33:48.402Z,98498.14
2022-11-24T23:36:17.669Z,98497.60
2022-11-24T23:38:45.192Z,98499.16
2022-11-24T23:41:15.537Z,98495.02
2022-11-24T23:43:42.737Z,98497.86
2022-11-24T23:46:11.985Z,98497.14
2022-11-24T23:48:39.801Z,98499.38
2022-11-24T23:51:11.509Z,98499.60
2022-11-24T23:53:38.776Z,98497.93
2022-11-24T23:56:05.977Z,98498.77
2022-11-24T23:58:33.125Z,98502.48
